createdAt,value
2023-04-07T00:02:08.966Z,6.26
2023-04-07T00:04:36.722Z,6.21
2023-04-07T00:07:03.962Z,6.20
2023-04-07T00:09:31.367Z,6.29
2023-04-07T00:11:58.418Z,6.27
2023-04-07T00:14:25.872Z,6.25
2023-04-07T00:16:52.875Z,6.32
2023-04-07T00:19:20.190Z,6.29
2023-04-07T00:21:47.248Z,6.28
2023-04-07T00:24:20.998Z,6.32
2023-04-07T00:26:54.525Z,6.31
2023-04-07T00:29:21.751Z,6.29
2023-04-07T00:31:49.365Z,6.26
2023-04-07T00:34:16.603Z,6.30
2023-04-07T00:36:43.695Z,6.13
2023-04-07T00:39:11.070Z,6.15
2023-04-07T00:41:38.116Z,6.05
2023-04-07T00:44:05.572Z,6.11
2023-04-07T00:46:32.818Z,6.14
2023-04-07T00:49:01.140Z,6.18
2023-04-07T00:51:28.788Z,6.17
2023-04-07T00:53:56.771Z,6.18
2023-04-07T00:56:24.863Z,6.18
2023-04-07T00:58:52.348Z,6.18
2023-04-07T01:01:24.341Z,6.24
2023-04-07T01:04:04.477Z,6.21
2023-04-07T01:06:35.653Z,6.23
2023-04-07T01:09:05.878Z,6.20
2023-04-07T01:11:48.568Z,6.19
2023-04-07T01:14:20.853Z,6.15
2023-04-07T01:17:01.789Z,6.12
2023-04-07T01:19:45.252Z,6.07
2023-04-07T01:22:41.712Z,6.10
2023-04-07T01:25:30.786Z,6.06
2023-04-07T01:28:22.697Z,5.94
2023-04-07T01:30:51.980Z,5.92
2023-04-07T01:33:21.025Z,5.88
2023-04-07T01:35:50.234Z,5.89
2023-04-07T01:38:18.616Z,5.88
2023-04-07T01:40:47.594Z,5.81
2023-04-07T01:43:18.907Z,5.85
2023-04-07T01:45:47.431Z,5.80
2023-04-07T01:48:16.608Z,5.74
2023-04-07T01:50:46.477Z,5.82
2023-04-07T01:53:15.829Z,5.82
2023-04-07T01:55:46.583Z,5.84
2023-04-07T01:58:13.802Z,5.83
2023-04-07T02:00:43.660Z,5.80
2023-04-07T02:03:29.890Z,5.85
2023-04-07T02:06:07.192Z,5.81
2023-04-07T02:08:37.014Z,5.83
2023-04-07T02:11:10.405Z,5.87
2023-04-07T02:13:38.141Z,5.88
2023-04-07T02:16:07.516Z,5.90
2023-04-07T02:18:35.819Z,5.93
2023-04-07T02:21:04.927Z,5.91
2023-04-07T02:23:35.780Z,5.91
2023-04-07T02:26:03.328Z,5.92
2023-04-07T02:28:30.816Z,5.95
2023-04-07T02:30:57.948Z,5.93
2023-04-07T02:33:25.657Z,5.95
2023-04-07T02:35:52.943Z,5.94
2023-04-07T02:38:21.488Z,5.92
2023-04-07T02:40:48.614Z,5.92
2023-04-07T02:43:17.970Z,5.87
2023-04-07T02:45:45.548Z,5.82
2023-04-07T02:48:13.290Z,5.77
2023-04-07T02:50:42.307Z,5.59
2023-04-07T02:53:11.493Z,5.32
2023-04-07T02:55:39.399Z,5.33
2023-04-07T02:58:10.172Z,5.21
2023-04-07T03:00:42.036Z,5.09
2023-04-07T03:03:13.518Z,4.88
2023-04-07T03:05:45.669Z,4.64
2023-04-07T03:08:18.148Z,4.41
2023-04-07T03:10:45.721Z,4.24
2023-04-07T03:13:17.386Z,4.09
2023-04-07T03:15:46.157Z,3.85
2023-04-07T03:18:15.457Z,3.70
2023-04-07T03:20:45.416Z,3.63
2023-04-07T03:23:16.381Z,3.41
2023-04-07T03:25:46.857Z,3.36
2023-04-07T03:28:16.379Z,3.24
2023-04-07T03:30:44.200Z,3.18
2023-04-07T03:33:16.835Z,3.08
2023-04-07T03:35:46.102Z,2.90
2023-04-07T03:38:13.990Z,2.87
2023-04-07T03:40:43.380Z,2.83
2023-04-07T03:43:14.757Z,2.80
2023-04-07T03:45:43.560Z,2.79
2023-04-07T03:48:12.610Z,2.84
2023-04-07T03:50:52.060Z,2.85
2023-04-07T03:53:20.411Z,2.92
2023-04-07T03:55:48.634Z,2.99
2023-04-07T03:58:28.206Z,3.04
2023-04-07T04:00:57.006Z,3.06
2023-04-07T04:03:25.258Z,3.02
2023-04-07T04:06:20.110Z,3.04
2023-04-07T04:08:52.105Z,3.17
2023-04-07T04:11:23.290Z,3.17
2023-04-07T04:14:02.024Z,3.20
2023-04-07T04:16:31.805Z,3.17
2023-04-07T04:19:04.539Z,3.11
2023-04-07T04:21:32.993Z,3.19
2023-04-07T04:24:02.483Z,3.24
2023-04-07T04:26:31.402Z,3.36
2023-04-07T04:29:05.484Z,3.39
2023-04-07T04:31:33.937Z,3.42
2023-04-07T04:34:01.588Z,3.55
2023-04-07T04:36:31.078Z,3.58
2023-04-07T04:39:04.367Z,3.62
2023-04-07T04:41:34.429Z,3.60
2023-04-07T04:44:03.421Z,3.70
2023-04-07T04:46:32.235Z,3.83
2023-04-07T04:49:00.279Z,4.09
2023-04-07T04:51:28.271Z,4.40
2023-04-07T04:54:04.120Z,4.53
2023-04-07T04:56:32.770Z,4.87
2023-04-07T04:59:01.456Z,5.13
2023-04-07T05:01:43.565Z,5.29
2023-04-07T05:04:15.476Z,5.54
2023-04-07T05:06:53.089Z,5.79
2023-04-07T05:09:25.741Z,6.12
2023-04-07T05:11:53.574Z,6.12
2023-04-07T05:14:21.871Z,6.35
2023-04-07T05:16:55.500Z,6.60
2023-04-07T05:19:29.977Z,6.62
2023-04-07T05:22:04.135Z,6.95
2023-04-07T05:24:37.318Z,7.06
2023-04-07T05:27:05.656Z,7.36
2023-04-07T05:29:34.342Z,7.68
2023-04-07T05:32:03.483Z,7.96
2023-04-07T05:34:34.563Z,8.29
2023-04-07T05:37:03.664Z,8.65
2023-04-07T05:39:32.161Z,9.00
2023-04-07T05:42:04.518Z,9.05
2023-04-07T05:44:35.510Z,8.96
2023-04-07T05:47:07.043Z,9.47
2023-04-07T05:49:38.708Z,9.82
2023-04-07T05:52:08.866Z,9.79
2023-04-07T05:54:42.103Z,9.41
2023-04-07T05:57:13.165Z,9.08
2023-04-07T05:59:45.732Z,9.46
2023-04-07T06:02:14.636Z,9.99
2023-04-07T06:04:45.946Z,10.39
2023-04-07T06:07:17.803Z,10.93
2023-04-07T06:09:46.075Z,11.38
2023-04-07T06:12:13.692Z,12.06
2023-04-07T06:14:41.649Z,12.32
2023-04-07T06:17:09.685Z,12.26
2023-04-07T06:19:37.765Z,11.98
2023-04-07T06:22:05.980Z,12.68
2023-04-07T06:24:34.072Z,12.92
2023-04-07T06:27:04.636Z,13.09
2023-04-07T06:29:33.933Z,13.50
2023-04-07T06:32:05.204Z,13.92
2023-04-07T06:34:33.469Z,14.82
2023-04-07T06:37:02.385Z,15.40
2023-04-07T06:39:31.837Z,16.30
2023-04-07T06:42:03.761Z,17.38
2023-04-07T06:44:37.851Z,16.67
2023-04-07T06:47:06.016Z,16.75
2023-04-07T06:49:35.126Z,18.05
2023-04-07T06:52:05.463Z,18.80
2023-04-07T06:54:33.551Z,18.89
2023-04-07T06:57:01.777Z,19.34
2023-04-07T06:59:30.048Z,18.30
2023-04-07T07:01:58.661Z,18.54
2023-04-07T07:04:27.710Z,18.64
2023-04-07T07:06:57.553Z,19.36
2023-04-07T07:09:26.020Z,18.70
2023-04-07T07:11:54.171Z,18.60
2023-04-07T07:14:21.966Z,18.91
2023-04-07T07:16:51.466Z,19.05
2023-04-07T07:19:19.775Z,18.63
2023-04-07T07:21:49.315Z,18.69
2023-04-07T07:24:17.916Z,19.66
2023-04-07T07:26:46.500Z,20.63
2023-04-07T07:29:21.157Z,21.67
2023-04-07T07:31:49.755Z,20.80
2023-04-07T07:34:17.340Z,20.46
2023-04-07T07:36:46.722Z,20.89
2023-04-07T07:39:15.509Z,21.44
2023-04-07T07:41:44.718Z,21.75
2023-04-07T07:44:12.740Z,22.31
2023-04-07T07:46:42.538Z,22.83
2023-04-07T07:49:10.437Z,23.37
2023-04-07T07:51:39.139Z,22.75
2023-04-07T07:54:08.265Z,21.82
2023-04-07T07:56:37.229Z,22.84
2023-04-07T07:59:08.393Z,22.16
2023-04-07T08:01:36.215Z,22.11
2023-04-07T08:04:04.751Z,22.21
2023-04-07T08:06:32.790Z,21.32
2023-04-07T08:09:00.637Z,22.56
2023-04-07T08:11:31.724Z,22.76
2023-04-07T08:16:27.743Z,23.77
2023-04-07T08:18:56.456Z,24.61
2023-04-07T08:21:24.642Z,23.94
2023-04-07T08:23:53.257Z,23.82
2023-04-07T08:26:21.515Z,24.81
2023-04-07T08:28:54.309Z,25.61
2023-04-07T08:31:22.882Z,25.80
2023-04-07T08:33:54.394Z,26.34
2023-04-07T08:36:22.452Z,26.67
2023-04-07T08:38:50.981Z,26.59
2023-04-07T08:41:39.889Z,25.35
2023-04-07T08:44:10.785Z,23.74
2023-04-07T08:46:43.135Z,22.76
2023-04-07T08:49:14.681Z,22.57
2023-04-07T08:51:47.995Z,23.59
2023-04-07T08:54:19.324Z,25.14
2023-04-07T08:56:47.776Z,25.59
2023-04-07T08:59:18.960Z,26.66
2023-04-07T09:01:48.435Z,25.26
2023-04-07T09:04:28.004Z,25.51
2023-04-07T09:06:56.265Z,24.89
2023-04-07T09:09:24.488Z,25.73
2023-04-07T09:11:53.242Z,26.12
2023-04-07T09:14:23.486Z,25.78
2023-04-07T09:16:51.428Z,25.75
2023-04-07T09:19:18.399Z,26.24
2023-04-07T09:21:53.525Z,27.02
2023-04-07T09:24:28.248Z,26.97
2023-04-07T09:27:29.496Z,26.72
2023-04-07T09:30:18.047Z,25.91
2023-04-07T09:32:46.219Z,25.42
2023-04-07T09:35:15.273Z,24.61
2023-04-07T09:37:43.032Z,23.76
2023-04-07T09:40:12.722Z,22.96
2023-04-07T09:42:51.546Z,22.48
2023-04-07T09:48:06.796Z,21.72
2023-04-07T09:50:41.631Z,21.38
2023-04-07T09:53:09.917Z,21.24
2023-04-07T09:55:37.863Z,20.64
2023-04-07T09:58:06.780Z,19.87
2023-04-07T10:00:38.245Z,19.81
2023-04-07T10:03:06.453Z,19.61
2023-04-07T10:05:37.189Z,19.68
2023-04-07T10:08:07.801Z,19.72
2023-04-07T10:10:37.792Z,20.16
2023-04-07T10:13:10.820Z,21.64
2023-04-07T10:15:42.280Z,22.58
2023-04-07T10:18:11.437Z,23.05
2023-04-07T10:20:43.216Z,23.02
2023-04-07T10:23:20.028Z,22.75
2023-04-07T10:25:51.176Z,22.38
2023-04-07T10:28:22.766Z,21.92
2023-04-07T10:30:54.442Z,21.40
2023-04-07T10:33:52.616Z,20.55
2023-04-07T10:36:22.848Z,20.47
2023-04-07T10:39:09.676Z,20.58
2023-04-07T10:41:38.061Z,21.20
2023-04-07T10:44:07.814Z,21.26
2023-04-07T10:46:48.815Z,21.22
2023-04-07T10:49:18.899Z,20.68
2023-04-07T10:52:13.699Z,21.08
2023-04-07T10:54:44.747Z,21.24
2023-04-07T10:57:16.596Z,21.27
2023-04-07T11:00:11.070Z,21.28
2023-04-07T11:02:41.176Z,21.33
2023-04-07T11:05:09.341Z,21.05
2023-04-07T11:07:56.051Z,20.61
2023-04-07T11:10:24.129Z,20.49
2023-04-07T11:13:07.266Z,20.33
2023-04-07T11:15:40.783Z,20.13
2023-04-07T11:18:21.234Z,19.78
2023-04-07T11:20:54.957Z,19.47
2023-04-07T11:23:25.843Z,19.25
2023-04-07T11:26:04.897Z,19.11
2023-04-07T11:28:33.936Z,19.05
2023-04-07T11:31:02.302Z,18.95
2023-04-07T11:33:35.348Z,18.60
2023-04-07T11:36:04.328Z,18.55
2023-04-07T11:38:40.267Z,18.56
2023-04-07T11:41:28.137Z,18.51
2023-04-07T11:44:09.861Z,18.52
2023-04-07T11:46:53.018Z,18.52
2023-04-07T11:49:21.837Z,18.95
2023-04-07T11:51:49.893Z,19.84
2023-04-07T11:54:17.958Z,21.18
2023-04-07T11:56:48.115Z,22.67
2023-04-07T11:59:24.375Z,24.31
2023-04-07T12:01:56.063Z,25.97
2023-04-07T12:04:24.996Z,27.16
2023-04-07T12:06:53.553Z,28.27
2023-04-07T12:09:36.571Z,28.48
2023-04-07T12:12:08.461Z,29.11
2023-04-07T12:14:35.943Z,28.93
2023-04-07T12:17:04.505Z,29.72
2023-04-07T12:19:36.648Z,29.81
2023-04-07T12:22:05.235Z,29.21
2023-04-07T12:24:33.650Z,29.10
2023-04-07T12:27:01.772Z,28.84
2023-04-07T12:29:30.133Z,29.57
2023-04-07T12:31:58.133Z,29.90
2023-04-07T12:34:25.716Z,29.16
2023-04-07T12:36:53.966Z,28.32
2023-04-07T12:39:22.266Z,28.46
2023-04-07T12:41:53.434Z,29.05
2023-04-07T12:44:21.592Z,28.19
2023-04-07T12:46:49.124Z,28.99
2023-04-07T12:49:16.921Z,29.69
2023-04-07T12:51:44.411Z,29.85
2023-04-07T12:54:11.648Z,30.43
2023-04-07T12:56:40.601Z,30.89
2023-04-07T12:59:08.876Z,31.33
2023-04-07T13:01:37.748Z,31.67
2023-04-07T13:04:05.849Z,32.10
2023-04-07T13:06:33.737Z,32.45
2023-04-07T13:09:01.517Z,32.17
2023-04-07T13:11:28.783Z,31.73
2023-04-07T13:13:57.466Z,31.02
2023-04-07T13:16:27.548Z,29.55
2023-04-07T13:18:55.746Z,29.15
2023-04-07T13:23:53.724Z,29.52
2023-04-07T13:26:21.782Z,29.38
2023-04-07T13:28:49.168Z,29.04
2023-04-07T13:31:16.858Z,28.31
2023-04-07T13:33:44.787Z,27.47
2023-04-07T13:36:12.527Z,26.80
2023-04-07T13:38:39.938Z,26.07
2023-04-07T13:41:07.911Z,25.11
2023-04-07T13:43:35.156Z,24.43
2023-04-07T13:46:03.180Z,23.92
2023-04-07T13:48:31.707Z,24.00
2023-04-07T13:50:59.584Z,24.20
2023-04-07T13:53:27.014Z,24.29
2023-04-07T13:55:54.521Z,24.27
2023-04-07T13:58:21.848Z,24.32
2023-04-07T14:00:49.142Z,24.50
2023-04-07T14:03:16.534Z,24.74
2023-04-07T14:05:43.938Z,24.92
2023-04-07T14:08:11.654Z,25.12
2023-04-07T14:10:40.335Z,25.38
2023-04-07T14:13:07.745Z,25.42
2023-04-07T14:15:34.838Z,25.16
2023-04-07T14:18:02.242Z,24.60
2023-04-07T14:20:29.707Z,24.05
2023-04-07T14:22:56.938Z,23.62
2023-04-07T14:25:24.789Z,23.29
2023-04-07T14:27:52.923Z,22.97
2023-04-07T14:30:20.648Z,22.67
2023-04-07T14:32:48.732Z,22.39
2023-04-07T14:35:16.520Z,21.86
2023-04-07T14:37:43.760Z,21.47
2023-04-07T14:40:11.651Z,21.04
2023-04-07T14:42:39.860Z,20.62
2023-04-07T14:45:07.759Z,20.28
2023-04-07T14:47:35.610Z,20.09
2023-04-07T14:50:03.065Z,19.80
2023-04-07T14:52:31.642Z,19.33
2023-04-07T14:55:00.440Z,19.16
2023-04-07T14:57:28.026Z,18.86
2023-04-07T14:59:55.439Z,18.64
2023-04-07T15:02:23.398Z,18.24
2023-04-07T15:04:51.675Z,17.97
2023-04-07T15:07:19.462Z,17.65
2023-04-07T15:09:48.761Z,17.32
2023-04-07T15:12:16.888Z,17.01
2023-04-07T15:14:47.422Z,16.72
2023-04-07T15:17:15.440Z,16.41
2023-04-07T15:19:43.969Z,16.08
2023-04-07T15:22:12.051Z,15.79
2023-04-07T15:24:39.682Z,15.51
2023-04-07T15:27:09.572Z,15.24
2023-04-07T15:29:37.875Z,15.01
2023-04-07T15:32:05.905Z,14.74
2023-04-07T15:34:33.492Z,14.58
2023-04-07T15:37:02.781Z,14.40
2023-04-07T15:39:31.464Z,14.23
2023-04-07T15:41:59.440Z,14.07
2023-04-07T15:44:27.435Z,13.94
2023-04-07T15:46:55.063Z,13.88
2023-04-07T15:49:23.713Z,13.78
2023-04-07T15:51:53.434Z,13.71
2023-04-07T15:54:21.242Z,13.61
2023-04-07T15:56:49.442Z,13.58
2023-04-07T15:59:17.690Z,13.51
2023-04-07T16:01:46.772Z,13.45
2023-04-07T16:04:15.073Z,13.38
2023-04-07T16:06:42.393Z,13.33
2023-04-07T16:09:09.732Z,13.26
2023-04-07T16:11:37.203Z,13.23
2023-04-07T16:14:04.974Z,13.22
2023-04-07T16:16:36.212Z,13.18
2023-04-07T16:19:03.653Z,13.17
2023-04-07T16:21:31.973Z,13.14
2023-04-07T16:23:59.267Z,13.10
2023-04-07T16:26:27.411Z,13.06
2023-04-07T16:28:54.938Z,12.96
2023-04-07T16:31:22.966Z,12.82
2023-04-07T16:33:51.739Z,12.69
2023-04-07T16:36:19.483Z,12.54
2023-04-07T16:38:48.065Z,12.32
2023-04-07T16:41:15.607Z,12.15
2023-04-07T16:43:43.544Z,11.95
2023-04-07T16:46:11.555Z,11.74
2023-04-07T16:48:41.424Z,11.53
2023-04-07T16:51:09.365Z,11.32
2023-04-07T16:53:37.944Z,11.11
2023-04-07T16:56:06.618Z,10.92
2023-04-07T16:58:34.097Z,10.73
2023-04-07T17:01:04.324Z,10.53
2023-04-07T17:03:31.762Z,10.33
2023-04-07T17:06:04.813Z,10.14
2023-04-07T17:08:36.281Z,9.96
2023-04-07T17:11:07.543Z,9.77
2023-04-07T17:13:35.015Z,9.62
2023-04-07T17:16:04.315Z,9.48
2023-04-07T17:18:33.345Z,9.34
2023-04-07T17:21:00.452Z,9.22
2023-04-07T17:23:28.553Z,9.10
2023-04-07T17:25:55.602Z,9.00
2023-04-07T17:28:22.902Z,8.89
2023-04-07T17:30:50.673Z,8.79
2023-04-07T17:33:17.789Z,8.66
2023-04-07T17:35:47.708Z,8.57
2023-04-07T17:38:15.670Z,8.51
2023-04-07T17:40:43.093Z,8.43
2023-04-07T17:43:11.321Z,8.37
2023-04-07T17:45:38.740Z,8.31
2023-04-07T17:48:09.921Z,8.29
2023-04-07T17:50:38.106Z,8.31
2023-04-07T17:53:05.444Z,8.37
2023-04-07T17:55:33.223Z,8.41
2023-04-07T17:58:03.134Z,8.47
2023-04-07T18:00:30.367Z,8.51
2023-04-07T18:02:57.801Z,8.55
2023-04-07T18:05:26.303Z,8.58
2023-04-07T18:07:55.076Z,8.60
2023-04-07T18:10:22.673Z,8.57
2023-04-07T18:12:50.932Z,8.59
2023-04-07T18:15:18.382Z,8.61
2023-04-07T18:17:47.724Z,8.62
2023-04-07T18:20:15.494Z,8.62
2023-04-07T18:22:42.692Z,8.66
2023-04-07T18:25:10.201Z,8.69
2023-04-07T18:27:37.006Z,8.71
2023-04-07T18:30:09.009Z,8.78
2023-04-07T18:32:36.420Z,8.80
2023-04-07T18:35:06.051Z,8.91
2023-04-07T18:37:33.252Z,9.03
2023-04-07T18:40:00.918Z,9.14
2023-04-07T18:42:28.300Z,9.23
2023-04-07T18:44:55.684Z,9.33
2023-04-07T18:47:22.975Z,9.40
2023-04-07T18:49:50.581Z,9.43
2023-04-07T18:52:18.216Z,9.50
2023-04-07T18:54:45.552Z,9.55
2023-04-07T18:57:13.111Z,9.59
2023-04-07T18:59:40.303Z,9.62
2023-04-07T19:02:08.111Z,9.63
2023-04-07T19:04:35.451Z,9.64
2023-04-07T19:07:03.876Z,9.63
2023-04-07T19:09:30.996Z,9.62
2023-04-07T19:11:58.019Z,9.59
2023-04-07T19:14:25.445Z,9.55
2023-04-07T19:16:53.121Z,9.52
2023-04-07T19:19:20.363Z,9.45
2023-04-07T19:21:47.603Z,9.41
2023-04-07T19:24:15.060Z,9.37
2023-04-07T19:26:43.316Z,9.35
2023-04-07T19:29:12.714Z,9.29
2023-04-07T19:31:40.421Z,9.26
2023-04-07T19:34:07.657Z,9.25
2023-04-07T19:36:36.161Z,9.22
2023-04-07T19:39:05.132Z,9.18
2023-04-07T19:41:32.467Z,9.18
2023-04-07T19:43:59.785Z,9.15
2023-04-07T19:46:27.014Z,9.14
2023-04-07T19:48:54.063Z,9.16
2023-04-07T19:51:21.360Z,9.16
2023-04-07T19:53:48.593Z,9.16
2023-04-07T19:56:16.025Z,9.13
2023-04-07T19:58:43.260Z,9.16
2023-04-07T20:01:17.825Z,9.15
2023-04-07T20:03:45.356Z,9.16
2023-04-07T20:06:15.306Z,9.16
2023-04-07T20:08:43.011Z,9.13
2023-04-07T20:11:13.436Z,9.15
2023-04-07T20:13:42.695Z,9.17
2023-04-07T20:16:10.127Z,9.17
2023-04-07T20:18:37.376Z,9.19
2023-04-07T20:21:08.091Z,9.23
2023-04-07T20:23:35.391Z,9.24
2023-04-07T20:26:02.596Z,9.25
2023-04-07T20:28:29.878Z,9.26
2023-04-07T20:30:56.957Z,9.26
2023-04-07T20:33:24.103Z,9.26
2023-04-07T20:35:51.289Z,9.27
2023-04-07T20:38:19.326Z,9.28
2023-04-07T20:40:46.952Z,9.29
2023-04-07T20:43:15.494Z,9.30
2023-04-07T20:45:42.877Z,9.29
2023-04-07T20:48:09.838Z,9.31
2023-04-07T20:50:38.591Z,9.28
2023-04-07T20:53:05.396Z,9.28
2023-04-07T20:55:33.064Z,9.24
2023-04-07T20:58:00.498Z,9.21
2023-04-07T21:00:27.699Z,9.14
2023-04-07T21:02:54.896Z,9.06
2023-04-07T21:05:22.355Z,9.00
2023-04-07T21:07:49.584Z,8.90
2023-04-07T21:10:16.629Z,8.84
2023-04-07T21:12:46.563Z,8.76
2023-04-07T21:15:13.494Z,8.73
2023-04-07T21:17:41.007Z,8.70
2023-04-07T21:20:08.768Z,8.71
2023-04-07T21:22:36.025Z,8.75
2023-04-07T21:25:07.207Z,8.75
2023-04-07T21:27:36.047Z,8.78
2023-04-07T21:30:06.914Z,8.81
2023-04-07T21:32:33.747Z,8.78
2023-04-07T21:35:01.281Z,8.83
2023-04-07T21:37:28.259Z,8.84
2023-04-07T21:39:55.762Z,8.83
2023-04-07T21:42:22.813Z,8.84
2023-04-07T21:44:50.033Z,8.84
2023-04-07T21:47:17.817Z,8.83
2023-04-07T21:49:45.010Z,8.82
2023-04-07T21:52:12.737Z,8.79
2023-04-07T21:54:40.097Z,8.70
2023-04-07T21:57:07.934Z,8.70
2023-04-07T21:59:36.166Z,8.69
2023-04-07T22:02:03.865Z,8.65
2023-04-07T22:04:32.211Z,8.62
2023-04-07T22:06:59.537Z,8.64
2023-04-07T22:09:27.527Z,8.69
2023-04-07T22:11:54.867Z,8.68
2023-04-07T22:14:25.106Z,8.67
2023-04-07T22:16:52.982Z,8.71
2023-04-07T22:19:20.109Z,8.73
2023-04-07T22:21:49.683Z,8.70
2023-04-07T22:24:16.767Z,8.73
2023-04-07T22:26:43.595Z,8.72
2023-04-07T22:29:12.019Z,8.70
2023-04-07T22:31:39.192Z,8.71
2023-04-07T22:34:06.521Z,8.70
2023-04-07T22:36:34.611Z,8.66
2023-04-07T22:39:01.782Z,8.67
2023-04-07T22:41:28.863Z,8.66
2023-04-07T22:43:55.860Z,8.66
2023-04-07T22:46:23.137Z,8.64
2023-04-07T22:48:51.054Z,8.63
2023-04-07T22:51:18.138Z,8.63
2023-04-07T22:53:45.963Z,8.64
2023-04-07T22:56:13.457Z,8.61
2023-04-07T22:58:40.487Z,8.56
2023-04-07T23:01:07.382Z,8.53
2023-04-07T23:03:34.588Z,8.57
2023-04-07T23:06:02.791Z,8.58
2023-04-07T23:08:29.954Z,8.59
2023-04-07T23:10:57.103Z,8.60
2023-04-07T23:13:24.444Z,8.60
2023-04-07T23:15:51.671Z,8.57
2023-04-07T23:18:18.775Z,8.58
2023-04-07T23:20:52.428Z,8.52
2023-04-07T23:23:19.625Z,8.54
2023-04-07T23:25:46.789Z,8.56
2023-04-07T23:28:13.975Z,8.59
2023-04-07T23:30:42.427Z,8.57
2023-04-07T23:33:09.467Z,8.59
2023-04-07T23:35:36.742Z,8.61
2023-04-07T23:38:04.895Z,8.62
2023-04-07T23:40:32.349Z,8.63
2023-04-07T23:42:59.810Z,8.64
2023-04-07T23:45:26.796Z,8.65
2023-04-07T23:47:53.887Z,8.66
2023-04-07T23:50:21.121Z,8.67
2023-04-07T23:52:48.165Z,8.66
2023-04-07T23:55:15.036Z,8.64
2023-04-07T23:57:43.162Z,8.63
